createdAt,value
2023-03-23T16:00:54.152Z,101362.09
2023-03-23T16:06:04.835Z,101372.03
2023-03-23T16:11:19.265Z,101368.22
2023-03-23T16:16:39.392Z,101360.88
2023-03-23T16:21:44.993Z,101322.31
2023-03-23T16:26:50.530Z,101369.94
2023-03-23T16:31:56.060Z,101365.69
2023-03-23T16:37:01.546Z,101367.97
2023-03-23T16:42:07.470Z,101374.16
2023-03-23T16:47:12.751Z,101376.78
2023-03-23T16:52:20.043Z,101380.31
2023-03-23T16:57:25.931Z,101372.00
2023-03-23T17:02:31.447Z,101370.44
2023-03-23T17:07:37.282Z,101368.31
2023-03-23T17:12:43.016Z,101364.50
2023-03-23T17:17:48.740Z,101369.72
2023-03-23T17:22:54.846Z,101372.75
2023-03-23T17:28:05.670Z,101378.25
2023-03-23T17:33:13.941Z,101374.13
2023-03-23T17:38:19.274Z,101384.84
2023-03-23T17:43:24.820Z,101366.69
2023-03-23T17:48:30.739Z,101372.03
2023-03-23T17:53:37.023Z,101383.28
2023-03-23T17:58:42.504Z,101372.69
2023-03-23T18:03:48.261Z,101374.47
2023-03-23T18:08:53.913Z,101359.19
2023-03-23T18:13:59.756Z,101364.00
2023-03-23T18:19:07.492Z,101358.88
2023-03-23T18:24:13.572Z,101360.44
2023-03-23T18:29:19.263Z,101367.34
2023-03-23T18:34:24.884Z,101359.97
2023-03-23T18:39:32.303Z,101366.00
2023-03-23T18:44:38.301Z,101272.59
2023-03-23T18:49:48.324Z,101340.22
2023-03-23T18:54:54.311Z,101355.66
2023-03-23T18:59:59.945Z,101362.81
2023-03-23T19:05:05.971Z,101362.34
2023-03-23T19:10:11.573Z,101357.97
2023-03-23T19:15:18.284Z,101358.41
2023-03-23T19:20:57.040Z,101355.94
2023-03-23T19:25:54.684Z,101333.88
2023-03-23T19:31:00.063Z,101339.63
2023-03-23T19:36:11.777Z,101344.22
2023-03-23T19:41:20.493Z,101350.78
2023-03-23T19:46:28.491Z,101353.91
2023-03-23T19:51:37.757Z,101330.78
2023-03-23T19:56:44.228Z,101346.03
2023-03-23T20:01:49.877Z,101347.69
2023-03-23T20:06:57.367Z,101351.19
2023-03-23T20:12:04.823Z,101348.72
2023-03-23T20:17:11.709Z,101342.91
2023-03-23T20:22:18.137Z,101346.88
2023-03-23T20:27:23.951Z,101326.84
2023-03-23T20:32:33.686Z,101338.47
2023-03-23T20:37:40.757Z,101340.56
2023-03-23T20:42:46.340Z,101347.56
2023-03-23T20:47:51.813Z,101334.66
2023-03-23T20:52:58.512Z,101333.44
2023-03-23T20:58:04.617Z,101330.22
2023-03-23T21:03:12.995Z,101310.47
2023-03-23T21:08:20.229Z,101331.72
2023-03-23T21:13:26.516Z,101325.53
2023-03-23T21:18:32.820Z,101327.47
2023-03-23T21:23:40.230Z,101319.78
2023-03-23T21:28:48.433Z,101315.94
2023-03-23T21:33:53.984Z,101318.56
2023-03-23T21:38:59.585Z,101311.00
2023-03-23T21:44:14.722Z,101316.53
2023-03-23T21:49:21.101Z,101324.16
2023-03-23T21:54:32.504Z,101315.19
2023-03-23T21:59:39.207Z,101310.22
2023-03-23T22:04:45.627Z,101294.94
2023-03-23T22:09:53.086Z,101312.19
2023-03-23T22:14:58.782Z,101310.09
2023-03-23T22:20:07.096Z,101311.91
2023-03-23T22:25:14.046Z,101307.81
2023-03-23T22:30:20.262Z,101311.09
2023-03-23T22:35:27.476Z,101265.28
2023-03-23T22:40:33.033Z,101310.72
2023-03-23T22:45:39.046Z,101300.47
2023-03-23T22:50:47.375Z,101301.72
2023-03-23T22:55:55.919Z,101297.63
2023-03-23T23:01:08.690Z,101306.81
2023-03-23T23:06:16.196Z,101293.41
2023-03-23T23:11:24.802Z,101267.66
2023-03-23T23:16:30.702Z,101270.00
2023-03-23T23:21:36.249Z,101286.28
2023-03-23T23:26:42.662Z,101280.53
2023-03-23T23:31:48.384Z,101276.72
2023-03-23T23:36:55.368Z,101268.50
2023-03-23T23:42:01.004Z,101262.63
2023-03-23T23:47:07.077Z,101267.38
2023-03-23T23:52:12.546Z,101259.41
2023-03-23T23:57:19.203Z,101269.44
